createdAt,value
2022-09-13T00:00:49.456Z,3.70
2022-09-13T00:03:51.126Z,3.80
2022-09-13T00:06:52.717Z,3.58
2022-09-13T00:09:54.337Z,3.50
2022-09-13T00:12:55.932Z,3.40
2022-09-13T00:15:58.412Z,3.50
2022-09-13T00:19:00.667Z,3.40
2022-09-13T00:22:02.232Z,3.47
2022-09-13T00:25:05.441Z,3.58
2022-09-13T00:28:07.306Z,3.03
2022-09-13T00:31:09.881Z,3.50
2022-09-13T00:34:11.691Z,3.13
2022-09-13T00:37:13.221Z,3.42
2022-09-13T00:40:14.886Z,3.55
2022-09-13T00:43:22.222Z,3.13
2022-09-13T00:46:48.411Z,3.50
2022-09-13T00:49:53.805Z,3.20
2022-09-13T00:53:04.933Z,3.40
2022-09-13T00:56:14.453Z,2.85
2022-09-13T00:59:24.594Z,3.13
2022-09-13T01:02:28.768Z,3.05
2022-09-13T01:05:38.638Z,3.05
2022-09-13T01:08:43.054Z,3.50
2022-09-13T01:11:55.644Z,3.30
2022-09-13T01:14:58.861Z,3.25
2022-09-13T01:18:00.558Z,3.60
2022-09-13T01:21:14.200Z,3.05
2022-09-13T01:24:24.800Z,3.53
2022-09-13T01:27:42.869Z,3.28
2022-09-13T01:31:10.956Z,3.08
2022-09-13T01:34:30.250Z,3.40
2022-09-13T01:37:43.666Z,3.80
2022-09-13T01:41:04.981Z,3.83
2022-09-13T01:44:52.288Z,3.40
2022-09-13T01:47:59.348Z,3.38
2022-09-13T01:51:04.511Z,3.38
2022-09-13T01:54:37.200Z,3.25
2022-09-13T01:57:49.467Z,3.40
2022-09-13T02:01:03.489Z,3.40
2022-09-13T02:04:18.170Z,2.97
2022-09-13T02:07:35.380Z,3.30
2022-09-13T02:10:46.156Z,3.20
2022-09-13T02:13:56.212Z,3.03
2022-09-13T02:17:15.198Z,3.33
2022-09-13T02:20:23.099Z,3.53
2022-09-13T02:23:32.399Z,3.40
2022-09-13T02:26:37.889Z,3.30
2022-09-13T02:29:42.579Z,3.50
2022-09-13T02:32:51.610Z,3.25
2022-09-13T02:36:00.813Z,3.33
2022-09-13T02:39:06.374Z,3.40
2022-09-13T02:42:23.130Z,3.47
2022-09-13T02:45:31.977Z,3.40
2022-09-13T02:49:01.972Z,3.60
2022-09-13T02:52:23.535Z,3.38
2022-09-13T02:55:48.269Z,3.47
2022-09-13T02:59:24.808Z,3.38
2022-09-13T03:02:32.565Z,3.47
2022-09-13T03:05:34.284Z,3.17
2022-09-13T03:08:37.347Z,3.60
2022-09-13T03:11:57.413Z,3.30
2022-09-13T03:15:04.858Z,3.50
2022-09-13T03:18:25.298Z,3.92
2022-09-13T03:21:52.412Z,3.40
2022-09-13T03:25:22.926Z,3.40
2022-09-13T03:32:10.645Z,3.67
2022-09-13T03:35:21.668Z,3.58
2022-09-13T03:43:41.459Z,4.30
2022-09-13T03:46:49.899Z,4.10
2022-09-13T03:49:52.758Z,4.28
2022-09-13T03:53:03.137Z,4.85
2022-09-13T03:56:17.634Z,4.97
2022-09-13T03:59:20.412Z,4.20
2022-09-13T04:02:24.451Z,4.38
2022-09-13T04:05:26.356Z,4.88
2022-09-13T04:08:27.975Z,3.92
2022-09-13T04:11:30.171Z,4.85
2022-09-13T04:14:31.982Z,4.18
2022-09-13T04:17:33.805Z,3.97
2022-09-13T04:20:36.017Z,4.53
2022-09-13T04:23:38.283Z,4.63
2022-09-13T04:26:39.861Z,4.40
2022-09-13T04:29:41.645Z,4.72
2022-09-13T04:32:44.451Z,4.32
2022-09-13T04:35:46.446Z,4.43
2022-09-13T04:38:48.229Z,4.63
2022-09-13T04:41:51.862Z,4.57
2022-09-13T04:44:53.471Z,4.25
2022-09-13T04:47:56.540Z,4.40
2022-09-13T04:51:04.525Z,4.47
2022-09-13T04:54:06.378Z,4.63
2022-09-13T04:57:08.463Z,4.63
2022-09-13T05:00:10.555Z,4.50
2022-09-13T05:03:12.133Z,5.72
2022-09-13T05:06:17.925Z,4.95
2022-09-13T05:09:19.624Z,4.50
2022-09-13T05:12:21.171Z,5.18
2022-09-13T05:15:28.551Z,4.32
2022-09-13T05:18:32.733Z,4.60
2022-09-13T05:21:34.387Z,4.80
2022-09-13T05:24:35.961Z,4.50
2022-09-13T05:27:40.158Z,4.13
2022-09-13T05:30:42.406Z,4.40
2022-09-13T05:33:59.812Z,4.30
2022-09-13T05:37:01.480Z,4.80
2022-09-13T05:40:12.342Z,4.80
2022-09-13T05:43:14.581Z,4.13
2022-09-13T05:46:21.965Z,4.50
2022-09-13T05:49:25.265Z,4.20
2022-09-13T05:52:29.678Z,4.65
2022-09-13T05:55:31.878Z,4.25
2022-09-13T05:58:35.376Z,4.32
2022-09-13T06:01:37.144Z,4.50
2022-09-13T06:04:38.926Z,4.65
2022-09-13T06:07:42.181Z,4.82
2022-09-13T06:10:43.815Z,4.20
2022-09-13T06:13:45.455Z,4.80
2022-09-13T06:16:47.158Z,4.20
2022-09-13T06:19:48.846Z,5.65
2022-09-13T06:22:50.437Z,4.15
2022-09-13T06:26:02.138Z,4.10
2022-09-13T06:29:03.760Z,4.20
2022-09-13T06:32:05.829Z,3.92
2022-09-13T06:35:08.294Z,4.18
2022-09-13T06:38:09.880Z,4.07
2022-09-13T06:41:20.568Z,4.43
2022-09-13T06:44:22.533Z,4.65
2022-09-13T06:47:24.282Z,3.95
2022-09-13T06:50:25.955Z,4.28
2022-09-13T06:53:28.922Z,4.25
2022-09-13T06:56:32.761Z,4.03
2022-09-13T06:59:34.958Z,4.35
2022-09-13T07:02:36.600Z,4.68
2022-09-13T07:05:38.130Z,4.40
2022-09-13T07:08:46.571Z,4.25
2022-09-13T07:11:50.349Z,4.03
2022-09-13T07:14:51.887Z,4.22
2022-09-13T07:17:53.470Z,4.05
2022-09-13T07:21:01.182Z,4.28
2022-09-13T07:24:04.113Z,4.32
2022-09-13T07:27:05.738Z,4.40
2022-09-13T07:30:07.922Z,4.20
2022-09-13T07:33:09.530Z,4.05
2022-09-13T07:36:12.239Z,4.50
2022-09-13T07:39:22.070Z,4.85
2022-09-13T07:42:24.187Z,4.35
2022-09-13T07:45:25.790Z,4.47
2022-09-13T07:48:33.239Z,4.68
2022-09-13T07:51:37.435Z,5.13
2022-09-13T07:54:39.074Z,4.75
2022-09-13T07:57:40.752Z,5.03
2022-09-13T08:00:42.461Z,4.57
2022-09-13T08:03:44.476Z,4.40
2022-09-13T08:06:46.977Z,3.70
2022-09-13T08:09:48.785Z,4.50
2022-09-13T08:12:50.441Z,5.00
2022-09-13T08:15:52.179Z,4.63
2022-09-13T08:18:55.678Z,5.53
2022-09-13T08:21:57.265Z,5.68
2022-09-13T08:24:58.862Z,5.53
2022-09-13T08:28:01.748Z,5.50
2022-09-13T08:31:12.185Z,5.53
2022-09-13T08:37:16.781Z,6.00
2022-09-13T08:40:18.766Z,6.05
2022-09-13T08:43:49.230Z,6.70
2022-09-13T08:50:17.247Z,6.18
2022-09-13T08:53:26.082Z,7.28
2022-09-13T08:56:48.425Z,7.38
2022-09-13T09:00:28.060Z,6.53
2022-09-13T09:03:43.035Z,6.73
2022-09-13T09:06:45.022Z,8.02
2022-09-13T09:09:53.771Z,9.50
2022-09-13T09:12:59.382Z,8.05
2022-09-13T09:16:35.238Z,6.40
2022-09-13T09:19:41.928Z,7.32
2022-09-13T09:22:45.534Z,6.50
2022-09-13T09:25:47.598Z,6.30
2022-09-13T09:29:16.484Z,7.88
2022-09-13T09:32:32.787Z,6.93
2022-09-13T09:35:47.801Z,6.78
2022-09-13T09:38:49.473Z,7.57
2022-09-13T09:41:51.338Z,6.78
2022-09-13T09:45:04.653Z,6.93
2022-09-13T09:48:14.842Z,7.00
2022-09-13T09:51:20.133Z,7.85
2022-09-13T09:54:23.150Z,7.20
2022-09-13T09:58:08.283Z,7.20
2022-09-13T10:01:18.742Z,7.32
2022-09-13T10:04:22.518Z,7.32
2022-09-13T10:07:35.742Z,8.68
2022-09-13T10:10:42.727Z,8.27
2022-09-13T10:14:02.529Z,7.75
2022-09-13T10:17:26.663Z,8.85
2022-09-13T10:20:28.345Z,8.77
2022-09-13T10:23:32.405Z,7.85
2022-09-13T10:26:34.406Z,7.50
2022-09-13T10:29:36.350Z,8.43
2022-09-13T10:32:37.998Z,8.25
2022-09-13T10:35:39.664Z,7.78
2022-09-13T10:38:47.883Z,7.68
2022-09-13T10:41:57.883Z,7.97
2022-09-13T10:45:01.380Z,7.68
2022-09-13T10:48:13.953Z,5.95
2022-09-13T10:51:21.935Z,7.03
2022-09-13T10:54:24.133Z,6.88
2022-09-13T10:57:35.361Z,6.22
2022-09-13T11:00:42.789Z,7.40
2022-09-13T11:03:56.943Z,7.68
2022-09-13T11:07:16.634Z,7.57
2022-09-13T11:10:29.146Z,8.07
2022-09-13T11:13:49.568Z,7.07
2022-09-13T11:17:03.918Z,9.80
2022-09-13T11:20:32.113Z,8.35
2022-09-13T11:23:59.742Z,8.40
2022-09-13T11:27:14.727Z,8.05
2022-09-13T11:30:29.808Z,6.07
2022-09-13T11:33:37.703Z,8.18
2022-09-13T11:36:50.700Z,7.30
2022-09-13T11:39:59.693Z,8.35
2022-09-13T11:43:41.306Z,8.35
2022-09-13T11:47:13.296Z,7.50
2022-09-13T11:50:55.832Z,6.15
2022-09-13T11:54:16.313Z,6.47
2022-09-13T11:57:25.283Z,4.85
2022-09-13T12:00:33.088Z,5.10
2022-09-13T12:03:43.496Z,8.35
2022-09-13T12:06:50.334Z,7.15
2022-09-13T12:10:21.384Z,7.50
2022-09-13T12:13:27.420Z,5.70
2022-09-13T12:16:36.773Z,7.40
2022-09-13T12:19:51.623Z,7.27
2022-09-13T12:22:55.772Z,6.85
2022-09-13T12:26:17.504Z,6.00
2022-09-13T12:29:45.476Z,7.18
2022-09-13T12:32:49.037Z,5.07
2022-09-13T12:35:56.261Z,11.88
2022-09-13T12:39:35.224Z,4.82
2022-09-13T12:42:46.371Z,10.20
2022-09-13T12:46:09.637Z,11.15
2022-09-13T12:49:31.022Z,11.48
2022-09-13T12:53:29.044Z,11.98
2022-09-13T12:56:37.235Z,12.07
2022-09-13T13:00:02.510Z,11.55
2022-09-13T13:03:12.168Z,10.02
2022-09-13T13:06:48.885Z,4.78
2022-09-13T13:09:56.310Z,10.45
2022-09-13T13:13:11.131Z,12.75
2022-09-13T13:16:27.822Z,13.40
2022-09-13T13:19:32.276Z,13.13
2022-09-13T13:22:43.306Z,7.80
2022-09-13T13:26:08.044Z,6.70
2022-09-13T13:29:29.966Z,9.75
2022-09-13T13:32:31.720Z,11.20
2022-09-13T13:35:33.602Z,10.52
2022-09-13T13:38:41.830Z,6.80
2022-09-13T13:41:49.419Z,9.85
2022-09-13T13:44:56.924Z,7.22
2022-09-13T13:48:35.751Z,10.60
2022-09-13T13:51:37.706Z,8.63
2022-09-13T13:54:42.380Z,12.55
2022-09-13T13:57:59.581Z,5.10
2022-09-13T14:01:02.790Z,7.90
2022-09-13T14:04:33.524Z,10.20
2022-09-13T14:07:52.898Z,11.10
2022-09-13T14:11:42.223Z,9.52
2022-09-13T14:15:13.460Z,5.10
2022-09-13T14:18:15.112Z,3.80
2022-09-13T14:21:25.037Z,6.50
2022-09-13T14:24:31.344Z,4.65
2022-09-13T14:27:43.683Z,5.53
2022-09-13T14:30:49.563Z,4.45
2022-09-13T14:33:52.823Z,4.50
2022-09-13T14:36:57.804Z,7.53
2022-09-13T14:40:18.824Z,7.90
2022-09-13T14:43:24.190Z,10.90
2022-09-13T14:46:37.526Z,11.43
2022-09-13T14:49:49.011Z,11.85
2022-09-13T14:52:58.545Z,9.52
2022-09-13T14:56:22.394Z,8.15
2022-09-13T14:59:29.912Z,9.43
2022-09-13T15:02:37.826Z,6.82
2022-09-13T15:05:40.595Z,8.13
2022-09-13T15:08:48.079Z,7.05
2022-09-13T15:11:53.237Z,6.45
2022-09-13T15:15:26.174Z,7.22
2022-09-13T15:18:36.655Z,8.23
2022-09-13T15:21:39.191Z,5.10
2022-09-13T15:24:54.627Z,6.38
2022-09-13T15:27:57.553Z,8.05
2022-09-13T15:31:00.966Z,9.15
2022-09-13T15:34:17.990Z,7.50
2022-09-13T15:37:30.178Z,7.38
2022-09-13T15:40:43.313Z,6.45
2022-09-13T15:43:47.867Z,8.25
2022-09-13T15:47:02.189Z,8.65
2022-09-13T15:50:04.356Z,5.10
2022-09-13T15:53:12.079Z,7.53
2022-09-13T15:56:19.976Z,9.20
2022-09-13T15:59:22.417Z,8.70
2022-09-13T16:02:30.783Z,6.80
2022-09-13T16:05:33.250Z,9.10
2022-09-13T16:08:36.435Z,8.90
2022-09-13T16:11:38.332Z,8.65
2022-09-13T16:14:40.681Z,9.02
2022-09-13T16:17:42.612Z,7.70
2022-09-13T16:20:45.410Z,6.85
2022-09-13T16:23:47.425Z,8.70
2022-09-13T16:26:49.250Z,7.70
2022-09-13T16:29:51.010Z,9.88
2022-09-13T16:32:52.736Z,8.77
2022-09-13T16:35:54.461Z,9.15
2022-09-13T16:39:00.831Z,9.40
2022-09-13T16:42:02.615Z,8.18
2022-09-13T16:45:05.035Z,10.27
2022-09-13T16:48:08.327Z,8.98
2022-09-13T16:51:13.448Z,9.30
2022-09-13T16:54:15.853Z,9.00
2022-09-13T16:57:22.666Z,9.75
2022-09-13T17:00:29.659Z,8.70
2022-09-13T17:03:34.138Z,8.93
2022-09-13T17:06:36.159Z,8.95
2022-09-13T17:09:40.632Z,8.82
2022-09-13T17:12:42.999Z,8.88
2022-09-13T17:15:45.016Z,9.18
2022-09-13T17:18:46.894Z,9.35
2022-09-13T17:21:52.348Z,8.27
2022-09-13T17:24:58.761Z,8.90
2022-09-13T17:28:00.711Z,9.25
2022-09-13T17:31:03.440Z,9.02
2022-09-13T17:34:07.891Z,9.52
2022-09-13T17:37:10.482Z,9.00
2022-09-13T17:40:12.661Z,9.50
2022-09-13T17:43:20.773Z,8.85
2022-09-13T17:46:25.073Z,9.45
2022-09-13T17:49:26.963Z,8.20
2022-09-13T17:52:34.729Z,8.20
2022-09-13T17:55:37.060Z,8.25
2022-09-13T17:58:38.941Z,7.82
2022-09-13T18:01:48.294Z,8.43
2022-09-13T18:04:53.338Z,7.93
2022-09-13T18:07:55.141Z,8.30
2022-09-13T18:11:13.108Z,7.32
2022-09-13T18:14:19.781Z,7.88
2022-09-13T18:17:21.527Z,9.55
2022-09-13T18:20:23.455Z,7.10
2022-09-13T18:23:31.791Z,7.50
2022-09-13T18:26:37.351Z,7.43
2022-09-13T18:29:51.162Z,7.38
2022-09-13T18:33:03.863Z,7.88
2022-09-13T18:42:15.908Z,8.40
2022-09-13T18:44:37.714Z,7.93
2022-09-13T18:51:01.502Z,6.10
2022-09-13T18:54:06.362Z,6.90
2022-09-13T18:57:08.916Z,7.30
2022-09-13T19:00:11.296Z,6.68
2022-09-13T19:03:13.680Z,7.68
2022-09-13T19:06:22.088Z,6.78
2022-09-13T19:09:24.766Z,7.68
2022-09-13T19:12:26.844Z,7.30
2022-09-13T19:15:29.033Z,7.53
2022-09-13T19:18:31.335Z,7.60
2022-09-13T19:21:34.133Z,6.82
2022-09-13T19:27:55.827Z,7.30
2022-09-13T19:31:04.377Z,6.20
2022-09-13T19:34:07.736Z,4.78
2022-09-13T19:37:10.720Z,5.13
2022-09-13T19:40:20.148Z,3.95
2022-09-13T19:43:25.977Z,3.83
2022-09-13T19:50:05.159Z,3.47
2022-09-13T19:56:38.000Z,3.17
2022-09-13T19:59:43.316Z,2.72
2022-09-13T20:06:11.598Z,2.40
2022-09-13T20:09:17.465Z,2.20
2022-09-13T20:12:25.840Z,2.45
2022-09-13T20:15:32.420Z,2.40
2022-09-13T20:18:38.509Z,3.00
2022-09-13T20:21:45.106Z,3.58
2022-09-13T20:24:46.951Z,2.20
2022-09-13T20:27:49.021Z,2.33
2022-09-13T20:30:56.134Z,2.20
2022-09-13T20:34:01.006Z,2.42
2022-09-13T20:40:22.993Z,2.15
2022-09-13T20:43:28.775Z,1.52
2022-09-13T20:49:47.740Z,1.52
2022-09-13T20:52:50.686Z,1.95
2022-09-13T20:59:10.712Z,1.52
2022-09-13T21:02:26.436Z,2.10
2022-09-13T21:05:28.511Z,2.35
2022-09-13T21:08:49.797Z,2.40
2022-09-13T21:11:51.862Z,1.95
2022-09-13T21:18:24.065Z,2.05
2022-09-13T21:21:32.105Z,2.70
2022-09-13T21:31:14.501Z,1.90
2022-09-13T21:34:20.827Z,1.60
2022-09-13T21:37:26.752Z,1.90
2022-09-13T21:40:28.848Z,1.50
2022-09-13T21:43:32.771Z,1.70
2022-09-13T21:46:37.696Z,1.60
2022-09-13T21:49:40.417Z,1.70
2022-09-13T21:56:01.905Z,1.80
2022-09-13T21:59:06.845Z,1.70
2022-09-13T22:05:25.718Z,1.95
2022-09-13T22:08:33.063Z,1.50
2022-09-13T22:11:39.950Z,1.63
2022-09-13T22:14:41.660Z,1.70
2022-09-13T22:17:44.554Z,1.40
2022-09-13T22:20:52.563Z,2.00
2022-09-13T22:23:56.919Z,1.70
2022-09-13T22:26:59.604Z,2.03
2022-09-13T22:30:01.977Z,1.92
2022-09-13T22:33:03.941Z,1.60
2022-09-13T22:39:32.499Z,1.80
2022-09-13T22:46:09.169Z,2.40
2022-09-13T22:49:17.581Z,2.17
2022-09-13T22:55:37.278Z,1.95
2022-09-13T22:58:42.759Z,2.33
2022-09-13T23:01:47.361Z,2.30
2022-09-13T23:04:59.119Z,2.17
2022-09-13T23:08:04.167Z,2.72
2022-09-13T23:11:19.460Z,2.03
2022-09-13T23:14:21.614Z,1.75
2022-09-13T23:17:23.449Z,1.90
2022-09-13T23:20:26.373Z,2.22
2022-09-13T23:23:33.168Z,2.10
2022-09-13T23:26:35.498Z,2.15
2022-09-13T23:29:39.385Z,2.10
2022-09-13T23:32:50.997Z,2.15
2022-09-13T23:35:59.148Z,2.20
2022-09-13T23:39:05.077Z,2.10
2022-09-13T23:42:14.283Z,2.00
2022-09-13T23:48:32.090Z,1.73
